Time;durP1;ratioP1;P1;durP2;ratioP2;P2;SDS_P1;SDS_P2;PMS_P1;PMS_P2;Temp;Humidity;BMP_temperature;BMP_pressure;BME280_temperature;BME280_humidity;BME280_pressure;Samples;Min_cycle;Max_cycle;Signal;HPM_P1;HPM_P2
2020/12/06 05:02:18;;;;;;;63.63;32.03;;;3.70;99.90;;;;;;5197639;23;20486;-59
2020/12/06 05:04:47;;;;;;;58.13;31.30;;;3.70;99.90;;;;;;4975641;28;20439;-60
2020/12/06 05:07:17;;;;;;;62.90;31.20;;;3.80;99.90;;;;;;4975684;28;20450;-59
2020/12/06 05:09:46;;;;;;;65.47;32.00;;;3.80;99.90;;;;;;4976160;28;20803;-59
2020/12/06 05:12:12;;;;;;;61.27;32.57;;;3.90;99.90;;;;;;4975968;28;20987;-60
2020/12/06 05:14:39;;;;;;;58.63;31.00;;;3.90;99.90;;;;;;4976137;28;20478;-59
2020/12/06 05:17:06;;;;;;;66.30;32.10;;;4.00;99.90;;;;;;4975403;28;20454;-61
2020/12/06 05:19:33;;;;;;;61.40;30.13;;;4.00;99.90;;;;;;4975219;28;20451;-61
2020/12/06 05:22:00;;;;;;;56.13;30.63;;;4.00;99.90;;;;;;4975199;28;20474;-61
2020/12/06 05:24:28;;;;;;;59.93;31.23;;;4.00;99.90;;;;;;4975183;28;20466;-61
2020/12/06 05:26:54;;;;;;;58.90;31.70;;;4.00;99.90;;;;;;4975193;28;20458;-61
2020/12/06 05:29:20;;;;;;;56.40;29.30;;;4.00;99.90;;;;;;4974843;28;20462;-60
2020/12/06 05:31:47;;;;;;;55.53;29.97;;;4.10;99.90;;;;;;4974966;28;20833;-60
2020/12/06 05:34:13;;;;;;;54.03;30.27;;;4.00;99.90;;;;;;4975050;28;20482;-61
2020/12/06 05:36:43;;;;;;;57.07;29.90;;;4.00;99.90;;;;;;4974674;28;20459;-62
2020/12/06 05:39:09;;;;;;;54.90;29.40;;;3.90;99.90;;;;;;4975463;28;20497;-59
2020/12/06 05:41:35;;;;;;;55.27;30.53;;;3.90;99.90;;;;;;4974836;28;20589;-60
2020/12/06 05:44:02;;;;;;;53.63;30.13;;;3.90;99.90;;;;;;4974847;28;20446;-60
2020/12/06 05:46:33;;;;;;;52.90;29.90;;;3.90;99.90;;;;;;4974714;28;20451;-61
2020/12/06 05:49:01;;;;;;;52.30;30.77;;;4.00;99.90;;;;;;4974414;28;20866;-61
2020/12/06 05:51:28;;;;;;;62.23;31.90;;;3.90;99.90;;;;;;4975253;28;20477;-61
2020/12/06 05:53:57;;;;;;;54.63;31.40;;;3.90;99.90;;;;;;4974575;28;20459;-61
2020/12/06 05:56:23;;;;;;;59.43;30.73;;;3.90;99.90;;;;;;4974700;28;20455;-61
2020/12/06 05:58:51;;;;;;;55.13;31.63;;;4.00;99.90;;;;;;4974857;28;20454;-61
2020/12/06 06:01:18;;;;;;;57.57;31.73;;;4.00;99.90;;;;;;4974320;28;20490;-62
2020/12/06 06:03:47;;;;;;;53.90;31.43;;;4.00;99.90;;;;;;4975163;28;20640;-60
2020/12/06 06:06:21;;;;;;;59.50;30.40;;;3.90;99.90;;;;;;4975565;28;20537;-60
2020/12/06 06:08:50;;;;;;;54.70;30.43;;;3.90;99.90;;;;;;4976008;28;20446;-61
2020/12/06 06:11:24;;;;;;;53.30;30.40;;;3.90;99.90;;;;;;4974595;28;20525;-61
2020/12/06 06:13:56;;;;;;;52.10;30.40;;;4.00;99.90;;;;;;4974539;28;20438;-61
2020/12/06 06:16:23;;;;;;;60.93;30.40;;;4.10;99.90;;;;;;4974486;28;20458;-61
2020/12/06 06:18:51;;;;;;;57.53;31.07;;;4.10;99.90;;;;;;4974269;28;20517;-61
2020/12/06 06:21:20;;;;;;;52.10;29.80;;;4.10;99.90;;;;;;4974446;28;20466;-60
2020/12/06 06:23:48;;;;;;;54.20;30.40;;;4.20;99.90;;;;;;4976033;28;20451;-61
2020/12/06 06:26:17;;;;;;;53.27;28.97;;;4.20;99.90;;;;;;4978528;28;20483;-61
2020/12/06 06:28:45;;;;;;;53.17;28.80;;;4.20;99.90;;;;;;4978510;28;20451;-61
2020/12/06 06:31:13;;;;;;;52.53;28.00;;;4.20;99.90;;;;;;4978138;28;21009;-61
2020/12/06 06:33:39;;;;;;;47.43;27.53;;;4.30;99.90;;;;;;4978168;28;20821;-61
2020/12/06 06:36:07;;;;;;;52.13;28.77;;;4.30;99.90;;;;;;4978138;28;20489;-61
2020/12/06 06:38:39;;;;;;;53.77;29.90;;;4.30;99.90;;;;;;4977938;28;20951;-61
2020/12/06 06:41:06;;;;;;;57.73;30.80;;;4.20;99.90;;;;;;4978153;28;20502;-61
2020/12/06 06:43:34;;;;;;;54.60;29.97;;;4.20;99.90;;;;;;4979283;28;20482;-61
2020/12/06 06:46:12;;;;;;;52.33;29.60;;;4.20;99.90;;;;;;4978209;28;20474;-62
2020/12/06 06:48:39;;;;;;;54.50;29.10;;;4.20;99.90;;;;;;4977895;28;20450;-61
2020/12/06 06:51:06;;;;;;;59.87;31.10;;;4.10;99.90;;;;;;4977531;28;20850;-61
2020/12/06 06:53:32;;;;;;;62.13;30.67;;;4.10;99.90;;;;;;4979553;28;20486;-61
2020/12/06 06:56:00;;;;;;;59.20;32.47;;;4.10;99.90;;;;;;4977861;28;20478;-61
2020/12/06 06:58:29;;;;;;;51.47;30.57;;;4.10;99.90;;;;;;4979292;28;20885;-61
2020/12/06 07:01:19;;;;;;;57.97;30.80;;;4.20;99.90;;;;;;4978414;28;20474;-61
2020/12/06 07:03:47;;;;;;;56.33;30.23;;;4.20;99.90;;;;;;4977719;28;20442;-61
2020/12/06 07:06:43;;;;;;;53.73;30.07;;;4.20;99.90;;;;;;4977744;28;20451;-61
2020/12/06 07:09:09;;;;;;;52.20;27.80;;;4.10;99.90;;;;;;4977730;28;20430;-61
2020/12/06 07:11:37;;;;;;;51.10;29.60;;;4.10;99.90;;;;;;4977206;28;20475;-61
2020/12/06 07:14:04;;;;;;;55.27;31.70;;;4.20;99.90;;;;;;4978177;28;20446;-61
2020/12/06 07:16:31;;;;;;;61.60;32.57;;;4.20;99.90;;;;;;4977784;28;20811;-61
2020/12/06 07:18:57;;;;;;;60.50;29.90;;;4.20;99.90;;;;;;4977398;28;20454;-61
2020/12/06 07:21:29;;;;;;;49.47;29.17;;;4.10;99.90;;;;;;4977222;28;20474;-61
2020/12/06 07:23:57;;;;;;;53.27;30.03;;;4.30;99.90;;;;;;4977657;28;20562;-61
2020/12/06 07:26:23;;;;;;;51.33;29.47;;;4.20;99.90;;;;;;4978203;28;20450;-61
2020/12/06 07:28:50;;;;;;;56.93;31.07;;;4.30;99.90;;;;;;4977703;28;20477;-61
2020/12/06 07:31:18;;;;;;;54.60;30.50;;;4.20;99.90;;;;;;4977527;28;20497;-61
2020/12/06 07:33:45;;;;;;;54.83;29.20;;;4.20;99.90;;;;;;4977380;28;20461;-60
2020/12/06 07:36:11;;;;;;;55.37;31.10;;;4.30;99.90;;;;;;4977284;28;20478;-61
2020/12/06 07:38:37;;;;;;;54.93;31.47;;;4.30;99.90;;;;;;4977386;28;20476;-61
2020/12/06 07:41:04;;;;;;;58.87;30.77;;;4.30;99.90;;;;;;4977265;28;20501;-61
2020/12/06 07:43:31;;;;;;;54.43;30.30;;;4.20;99.90;;;;;;4976834;28;20963;-60
2020/12/06 07:45:57;;;;;;;58.43;32.03;;;4.20;99.90;;;;;;4977064;28;20454;-60
2020/12/06 07:48:23;;;;;;;64.23;31.80;;;4.20;99.90;;;;;;4976761;28;20859;-60
2020/12/06 07:50:51;;;;;;;62.50;30.90;;;4.20;99.90;;;;;;4976608;28;20478;-60
2020/12/06 07:53:17;;;;;;;75.67;30.40;;;4.30;99.90;;;;;;4977002;28;20450;-60
2020/12/06 07:55:43;;;;;;;76.33;32.07;;;4.30;99.90;;;;;;4976825;28;20474;-59
2020/12/06 07:58:14;;;;;;;81.13;34.17;;;4.20;99.90;;;;;;4977020;28;20455;-59
2020/12/06 08:00:41;;;;;;;68.90;30.90;;;4.20;99.90;;;;;;4976583;28;20486;-60
2020/12/06 08:03:07;;;;;;;67.57;32.60;;;4.20;99.90;;;;;;4976471;28;20934;-59
2020/12/06 08:05:35;;;;;;;70.00;32.83;;;4.20;99.90;;;;;;4976446;28;20970;-60
2020/12/06 08:08:06;;;;;;;74.27;33.27;;;4.20;99.90;;;;;;4976738;28;20457;-60
2020/12/06 08:10:34;;;;;;;73.70;32.00;;;4.30;99.90;;;;;;4976499;28;20514;-60
2020/12/06 08:13:00;;;;;;;79.73;29.47;;;4.30;99.90;;;;;;4976479;28;20455;-60
2020/12/06 08:15:28;;;;;;;123.43;25.20;;;4.30;99.90;;;;;;4976386;28;20485;-60
2020/12/06 08:17:55;;;;;;;93.23;25.77;;;4.30;99.90;;;;;;4976534;28;20435;-59
2020/12/06 08:20:22;;;;;;;94.13;29.47;;;4.40;99.90;;;;;;4976905;28;20509;-60
2020/12/06 08:22:51;;;;;;;82.20;30.20;;;4.40;99.90;;;;;;4976289;28;20454;-60
2020/12/06 08:25:20;;;;;;;99.60;29.03;;;4.40;99.90;;;;;;4976382;28;20451;-59
2020/12/06 08:27:47;;;;;;;107.97;31.43;;;4.30;99.90;;;;;;4976122;28;20478;-60
2020/12/06 08:30:15;;;;;;;111.13;31.60;;;4.20;99.90;;;;;;4976115;28;20461;-60
2020/12/06 08:32:49;;;;;;;138.77;33.90;;;4.20;99.90;;;;;;4976148;28;20454;-60
2020/12/06 08:35:15;;;;;;;134.17;32.23;;;4.20;99.90;;;;;;4975978;28;20462;-60
2020/12/06 08:37:41;;;;;;;113.20;34.90;;;4.20;99.90;;;;;;4976526;28;20451;-59
2020/12/06 08:40:08;;;;;;;88.40;33.53;;;4.30;99.90;;;;;;4975999;28;20474;-59
2020/12/06 08:42:35;;;;;;;100.53;35.10;;;4.30;99.90;;;;;;4976100;28;20474;-60
2020/12/06 08:45:03;;;;;;;126.27;31.30;;;4.30;99.90;;;;;;4976000;28;20451;-60
2020/12/06 08:47:40;;;;;;;167.03;28.80;;;4.40;99.90;;;;;;4975181;28;20450;-60
2020/12/06 08:50:10;;;;;;;94.83;25.67;;;4.50;99.90;;;;;;4976017;28;20497;-59
2020/12/06 08:52:36;;;;;;;106.47;26.60;;;4.40;99.90;;;;;;4975810;28;20475;-60
2020/12/06 08:55:23;;;;;;;80.73;25.67;;;4.50;99.90;;;;;;4975730;28;20474;-60
2020/12/06 08:57:50;;;;;;;103.00;26.10;;;4.50;99.90;;;;;;4976523;28;20541;-61
2020/12/06 09:00:16;;;;;;;127.30;26.50;;;4.50;99.90;;;;;;4975416;28;20571;-62
2020/12/06 09:02:42;;;;;;;80.07;26.90;;;4.50;99.90;;;;;;4975654;28;20939;-62
2020/12/06 09:05:09;;;;;;;76.80;25.10;;;4.60;99.90;;;;;;4975527;28;20438;-61
2020/12/06 09:07:35;;;;;;;64.50;22.67;;;4.70;99.90;;;;;;4975507;28;20462;-61
2020/12/06 09:10:03;;;;;;;68.60;24.63;;;4.80;99.90;;;;;;4975399;28;20451;-61
2020/12/06 09:12:31;;;;;;;64.53;22.73;;;4.90;99.90;;;;;;4975025;28;20474;-61
2020/12/06 09:14:58;;;;;;;64.70;21.93;;;5.00;99.90;;;;;;4974162;28;20569;-62
2020/12/06 09:17:24;;;;;;;55.70;20.67;;;5.00;99.90;;;;;;4974614;28;20475;-61
2020/12/06 09:19:50;;;;;;;57.20;19.87;;;5.00;99.90;;;;;;4974854;28;20450;-62
2020/12/06 09:22:17;;;;;;;52.80;19.60;;;5.10;99.90;;;;;;4975189;28;20482;-62
2020/12/06 09:24:43;;;;;;;50.10;20.93;;;5.10;99.90;;;;;;4974677;28;20954;-61
2020/12/06 09:27:09;;;;;;;47.43;20.30;;;5.20;99.90;;;;;;4975980;28;20840;-61
2020/12/06 09:29:35;;;;;;;47.40;20.13;;;5.20;99.90;;;;;;4975050;28;20454;-61
2020/12/06 09:32:02;;;;;;;46.80;20.10;;;5.20;99.90;;;;;;4975075;28;20475;-61
2020/12/06 09:34:28;;;;;;;43.53;20.30;;;5.20;99.90;;;;;;4975369;28;20846;-62
2020/12/06 09:36:54;;;;;;;39.73;19.77;;;5.30;99.90;;;;;;4975614;28;20451;-61
2020/12/06 09:39:21;;;;;;;40.60;20.10;;;5.30;99.90;;;;;;4975031;28;20466;-61
2020/12/06 09:41:47;;;;;;;46.80;19.10;;;5.30;99.90;;;;;;4974837;28;20467;-61
2020/12/06 09:44:13;;;;;;;38.37;17.27;;;5.30;99.90;;;;;;4975558;28;20473;-61
2020/12/06 09:46:39;;;;;;;43.43;19.10;;;5.30;99.90;;;;;;4974334;28;20458;-61
2020/12/06 09:49:06;;;;;;;41.50;18.67;;;5.30;99.90;;;;;;4974577;28;20447;-60
2020/12/06 09:51:32;;;;;;;40.30;19.20;;;5.20;99.90;;;;;;4974690;28;20479;-60
2020/12/06 09:54:00;;;;;;;40.60;20.00;;;5.20;99.90;;;;;;4974879;28;20451;-60
2020/12/06 09:56:27;;;;;;;51.33;20.73;;;5.30;99.90;;;;;;4974652;28;20484;-59
2020/12/06 09:58:53;;;;;;;43.40;17.67;;;5.30;99.90;;;;;;4973864;28;20491;-60
2020/12/06 10:01:20;;;;;;;42.33;18.90;;;5.30;99.90;;;;;;4974369;28;20478;-60
2020/12/06 10:03:46;;;;;;;42.70;17.57;;;5.20;99.90;;;;;;4975172;28;20478;-60
2020/12/06 10:06:13;;;;;;;51.30;19.90;;;5.20;99.90;;;;;;4975828;28;20562;-62
2020/12/06 10:08:40;;;;;;;45.17;19.63;;;5.10;99.90;;;;;;4974255;28;20940;-61
2020/12/06 10:11:06;;;;;;;48.03;21.33;;;5.10;99.90;;;;;;4974571;28;20655;-60
2020/12/06 10:13:32;;;;;;;50.43;21.10;;;5.20;99.90;;;;;;4974503;28;20458;-60
2020/12/06 10:15:59;;;;;;;48.63;19.67;;;5.20;99.90;;;;;;4974397;28;20582;-61
2020/12/06 10:18:25;;;;;;;40.63;21.47;;;5.20;99.90;;;;;;4974890;28;20462;-60
2020/12/06 10:20:51;;;;;;;42.93;18.93;;;5.20;99.90;;;;;;4974799;28;20812;-60
2020/12/06 10:23:18;;;;;;;50.50;22.67;;;5.30;99.90;;;;;;4975368;28;20469;-60
2020/12/06 10:25:44;;;;;;;45.03;21.03;;;5.30;99.90;;;;;;4975917;28;20455;-59
2020/12/06 10:28:11;;;;;;;42.17;20.20;;;5.30;99.90;;;;;;4975782;28;20958;-61
2020/12/06 10:30:37;;;;;;;55.77;23.97;;;5.40;99.90;;;;;;4974652;28;20485;-61
2020/12/06 10:33:03;;;;;;;44.20;20.40;;;5.40;99.90;;;;;;4974701;28;20446;-61
2020/12/06 10:35:29;;;;;;;45.43;20.00;;;5.30;99.90;;;;;;4974467;28;20482;-62
2020/12/06 10:37:55;;;;;;;42.27;20.70;;;5.30;99.90;;;;;;4974332;28;20903;-62
2020/12/06 10:40:22;;;;;;;44.50;22.13;;;5.20;99.90;;;;;;4974665;28;20455;-61
2020/12/06 10:42:48;;;;;;;43.87;20.17;;;5.10;99.90;;;;;;4974872;28;20454;-62
2020/12/06 10:45:15;;;;;;;47.67;23.67;;;5.10;99.90;;;;;;4974396;28;20482;-60
2020/12/06 10:47:41;;;;;;;42.17;22.63;;;5.20;99.90;;;;;;4974474;28;20458;-61
2020/12/06 10:50:07;;;;;;;42.80;18.87;;;5.20;99.90;;;;;;4974818;28;20458;-63
2020/12/06 10:52:33;;;;;;;41.47;22.60;;;5.20;99.90;;;;;;4974073;28;20485;-61
2020/12/06 10:54:59;;;;;;;36.03;19.87;;;5.20;99.90;;;;;;4974237;28;21090;-61
2020/12/06 10:57:26;;;;;;;40.80;19.40;;;5.20;99.90;;;;;;4974270;28;20545;-61
2020/12/06 10:59:54;;;;;;;42.93;22.30;;;5.20;99.90;;;;;;4973960;28;20952;-61
2020/12/06 11:02:20;;;;;;;46.57;23.47;;;5.20;99.90;;;;;;4973904;28;20562;-61
2020/12/06 11:04:46;;;;;;;46.23;25.87;;;5.30;99.90;;;;;;4974667;28;20837;-61
2020/12/06 11:07:13;;;;;;;34.87;18.80;;;5.20;99.90;;;;;;4974332;28;20457;-60
2020/12/06 11:09:39;;;;;;;38.13;19.60;;;5.20;99.90;;;;;;4975314;28;20458;-61
2020/12/06 11:12:05;;;;;;;30.20;15.63;;;5.30;99.90;;;;;;4977279;28;20477;-60
2020/12/06 11:14:32;;;;;;;29.73;18.17;;;5.40;99.90;;;;;;4977636;28;20892;-61
2020/12/06 11:16:58;;;;;;;29.17;16.47;;;5.40;99.90;;;;;;4977622;28;20450;-61
2020/12/06 11:19:24;;;;;;;26.23;16.23;;;5.40;99.90;;;;;;4977581;28;20473;-61
2020/12/06 11:21:51;;;;;;;30.20;15.80;;;5.40;99.90;;;;;;4977636;28;20508;-61
2020/12/06 11:24:18;;;;;;;27.97;17.33;;;5.40;99.90;;;;;;4977632;28;20502;-61
2020/12/06 11:26:44;;;;;;;26.63;15.93;;;5.50;99.90;;;;;;4978815;28;20461;-60
2020/12/06 11:29:10;;;;;;;23.63;14.90;;;5.50;99.90;;;;;;4977338;28;20461;-60
2020/12/06 11:31:37;;;;;;;25.70;16.33;;;5.50;99.90;;;;;;4977472;28;20466;-60
2020/12/06 11:34:03;;;;;;;27.80;15.67;;;5.50;99.90;;;;;;4980126;28;20474;-61
2020/12/06 11:36:30;;;;;;;23.90;14.77;;;5.50;99.90;;;;;;4978299;28;20478;-60
2020/12/06 11:38:56;;;;;;;26.60;15.10;;;5.50;99.90;;;;;;4976937;28;20462;-61
2020/12/06 11:41:23;;;;;;;22.67;15.47;;;5.60;99.90;;;;;;4977250;28;20479;-61
2020/12/06 11:43:49;;;;;;;22.83;15.30;;;5.50;99.90;;;;;;4977237;28;20958;-60
2020/12/06 11:46:15;;;;;;;21.40;14.40;;;5.50;99.90;;;;;;4977705;28;20453;-60
2020/12/06 11:48:42;;;;;;;20.10;13.77;;;5.60;99.90;;;;;;4977491;28;20975;-60
2020/12/06 11:51:08;;;;;;;19.97;14.87;;;5.60;99.90;;;;;;4977767;28;20478;-61
2020/12/06 11:53:36;;;;;;;20.00;14.27;;;5.60;99.90;;;;;;4977814;28;20451;-61
2020/12/06 11:56:02;;;;;;;20.43;15.70;;;5.60;99.90;;;;;;4977701;28;20474;-60
2020/12/06 11:58:28;;;;;;;24.07;15.30;;;5.50;99.90;;;;;;4977709;28;20442;-61
2020/12/06 12:00:54;;;;;;;16.60;13.50;;;5.50;99.90;;;;;;4976608;28;20482;-61
2020/12/06 12:03:20;;;;;;;18.20;12.70;;;5.70;99.90;;;;;;4977722;28;20515;-60
2020/12/06 12:05:47;;;;;;;16.77;13.30;;;5.70;99.90;;;;;;4976949;28;20780;-62
2020/12/06 12:08:14;;;;;;;17.00;12.80;;;5.70;99.90;;;;;;4977346;28;20458;-60
2020/12/06 12:10:40;;;;;;;18.80;14.40;;;5.70;99.90;;;;;;4976354;28;21002;-61
2020/12/06 12:13:06;;;;;;;16.20;13.57;;;5.60;99.90;;;;;;4977330;28;20439;-61
2020/12/06 12:15:32;;;;;;;16.80;12.30;;;5.70;99.90;;;;;;4976685;28;20490;-62
2020/12/06 12:17:58;;;;;;;18.80;15.00;;;5.70;99.90;;;;;;4977767;28;20994;-60
2020/12/06 12:20:24;;;;;;;23.93;18.80;;;5.80;99.90;;;;;;4976509;28;20448;-62
2020/12/06 12:22:51;;;;;;;16.87;14.63;;;5.90;99.90;;;;;;4976035;28;20450;-61
2020/12/06 12:25:18;;;;;;;16.73;13.20;;;5.90;99.90;;;;;;4976916;28;20818;-61
2020/12/06 12:27:44;;;;;;;17.23;14.30;;;5.90;99.90;;;;;;4976637;28;20446;-61
2020/12/06 12:30:10;;;;;;;15.87;12.77;;;6.00;99.90;;;;;;4976630;28;20929;-61
2020/12/06 12:32:36;;;;;;;15.03;13.43;;;6.00;99.90;;;;;;4976229;28;20502;-61
2020/12/06 12:35:03;;;;;;;15.83;13.20;;;6.00;99.90;;;;;;4976090;28;20537;-62
2020/12/06 12:37:29;;;;;;;13.70;12.30;;;6.00;99.90;;;;;;4976210;28;20450;-61
2020/12/06 12:39:56;;;;;;;14.23;12.83;;;6.00;99.90;;;;;;4976334;28;20466;-60
2020/12/06 12:42:22;;;;;;;17.70;12.50;;;6.00;99.90;;;;;;4976125;28;20478;-60
2020/12/06 12:44:48;;;;;;;12.20;11.00;;;6.10;99.90;;;;;;4976042;28;20447;-61
2020/12/06 12:47:14;;;;;;;13.27;12.00;;;6.10;99.90;;;;;;4976381;28;20454;-61
2020/12/06 12:49:41;;;;;;;11.40;10.30;;;6.10;99.90;;;;;;4976231;28;20477;-61
2020/12/06 12:52:09;;;;;;;11.27;10.17;;;6.20;99.90;;;;;;4975762;28;20486;-62
2020/12/06 12:54:35;;;;;;;10.60;9.60;;;6.10;99.90;;;;;;4976079;28;20455;-61
2020/12/06 12:57:04;;;;;;;11.00;10.10;;;6.10;99.90;;;;;;4976360;28;20466;-61
2020/12/06 12:59:30;;;;;;;10.93;10.03;;;6.20;99.90;;;;;;4975968;28;20513;-61
2020/12/06 13:01:56;;;;;;;11.93;9.57;;;6.20;99.90;;;;;;4975575;28;20482;-62
2020/12/06 13:04:23;;;;;;;10.40;9.40;;;6.30;99.90;;;;;;4975848;28;20455;-62
2020/12/06 13:06:49;;;;;;;9.43;8.70;;;6.40;99.90;;;;;;4975984;28;20473;-61
2020/12/06 13:09:15;;;;;;;8.80;8.00;;;6.30;99.90;;;;;;4975728;28;20482;-62
2020/12/06 13:11:42;;;;;;;8.37;7.67;;;6.40;99.90;;;;;;4975745;28;20474;-62
2020/12/06 13:14:09;;;;;;;8.20;7.50;;;6.40;99.90;;;;;;4976246;28;20454;-60
2020/12/06 13:16:35;;;;;;;9.40;8.50;;;6.40;99.90;;;;;;4975526;28;20471;-61
2020/12/06 13:19:01;;;;;;;9.40;8.60;;;6.40;99.90;;;;;;4975425;28;20458;-60
2020/12/06 13:21:27;;;;;;;8.80;8.10;;;6.30;99.90;;;;;;4975348;28;20482;-61
2020/12/06 13:23:54;;;;;;;9.17;8.30;;;6.30;99.90;;;;;;4975299;28;20457;-61
2020/12/06 13:26:20;;;;;;;9.30;8.60;;;6.20;99.90;;;;;;4977959;28;20943;-61
2020/12/06 13:28:47;;;;;;;10.00;9.13;;;6.20;99.90;;;;;;4975642;28;20451;-61
2020/12/06 13:31:18;;;;;;;8.73;7.93;;;6.30;99.90;;;;;;4975437;28;20474;-61
2020/12/06 13:33:44;;;;;;;8.67;8.03;;;6.20;99.90;;;;;;4975079;28;20441;-60
2020/12/06 13:36:10;;;;;;;8.57;7.87;;;6.20;99.90;;;;;;4974932;28;21021;-61
2020/12/06 13:38:36;;;;;;;7.57;7.03;;;6.10;99.90;;;;;;4975348;28;20451;-60
2020/12/06 13:41:03;;;;;;;8.03;7.43;;;6.10;99.90;;;;;;4975471;28;20470;-60
2020/12/06 13:43:29;;;;;;;7.70;7.13;;;6.10;99.90;;;;;;4975280;28;20849;-61
2020/12/06 13:45:55;;;;;;;7.80;7.20;;;6.10;99.90;;;;;;4975345;28;20451;-61
2020/12/06 13:48:23;;;;;;;8.33;7.70;;;6.10;99.90;;;;;;4975049;28;20454;-61
2020/12/06 13:50:49;;;;;;;7.57;7.07;;;6.10;99.90;;;;;;4974560;28;20997;-61
2020/12/06 13:53:15;;;;;;;6.67;6.23;;;6.00;99.90;;;;;;4974828;28;20446;-61
2020/12/06 13:55:41;;;;;;;7.63;7.00;;;6.00;99.90;;;;;;4974404;28;21030;-61
2020/12/06 13:58:07;;;;;;;7.70;7.10;;;6.10;99.90;;;;;;4974591;28;20798;-61
2020/12/06 14:00:33;;;;;;;9.17;8.27;;;6.10;99.90;;;;;;4974511;28;20579;-61
2020/12/06 14:02:59;;;;;;;9.73;8.27;;;6.00;99.90;;;;;;4974788;28;20475;-60
2020/12/06 14:05:27;;;;;;;9.10;8.30;;;6.10;99.90;;;;;;4976203;28;20446;-60
2020/12/06 14:07:53;;;;;;;8.50;7.80;;;6.00;99.90;;;;;;4974440;28;20454;-61
2020/12/06 14:10:19;;;;;;;9.03;8.23;;;6.10;99.90;;;;;;4975810;28;20807;-61
2020/12/06 14:12:45;;;;;;;10.60;9.60;;;6.00;99.90;;;;;;4975283;28;20455;-61
2020/12/06 14:15:11;;;;;;;11.30;10.20;;;6.00;99.90;;;;;;4974536;28;20478;-61
2020/12/06 14:17:37;;;;;;;10.93;9.83;;;5.90;99.90;;;;;;4974555;28;20477;-61
2020/12/06 14:20:04;;;;;;;13.10;11.87;;;5.90;99.90;;;;;;4974244;28;20461;-61
2020/12/06 14:22:31;;;;;;;12.77;11.37;;;5.90;99.90;;;;;;4974965;28;20810;-61
2020/12/06 14:24:57;;;;;;;12.30;11.10;;;5.90;99.90;;;;;;4974894;28;20466;-61
2020/12/06 14:27:24;;;;;;;13.63;12.23;;;5.80;99.90;;;;;;4974733;28;20455;-60
2020/12/06 14:29:50;;;;;;;13.47;12.17;;;5.80;99.90;;;;;;4975029;28;20861;-61
2020/12/06 14:32:16;;;;;;;13.63;12.23;;;5.80;99.90;;;;;;4974849;28;20482;-60
2020/12/06 14:34:42;;;;;;;14.03;12.53;;;5.70;99.90;;;;;;4974758;28;20457;-61
2020/12/06 14:37:09;;;;;;;14.63;13.20;;;5.70;99.90;;;;;;4975232;28;20489;-61
2020/12/06 14:39:36;;;;;;;14.87;13.33;;;5.80;99.90;;;;;;4974625;28;20462;-61
2020/12/06 14:42:03;;;;;;;16.10;14.50;;;5.80;99.90;;;;;;4974566;28;20529;-61
2020/12/06 14:44:29;;;;;;;15.43;13.93;;;5.90;99.90;;;;;;4976990;28;20828;-61
2020/12/06 14:46:55;;;;;;;15.87;14.27;;;5.80;99.90;;;;;;4980116;28;20454;-61
2020/12/06 14:49:21;;;;;;;15.87;14.17;;;5.90;99.90;;;;;;4981034;28;20458;-61
2020/12/06 14:51:47;;;;;;;16.07;14.50;;;5.90;99.90;;;;;;4980707;28;20876;-61
2020/12/06 14:54:14;;;;;;;15.97;14.37;;;6.00;99.90;;;;;;4979913;28;20770;-61
2020/12/06 14:56:43;;;;;;;14.97;13.47;;;5.90;99.90;;;;;;4979790;28;20481;-61
2020/12/06 14:59:09;;;;;;;15.50;14.07;;;5.90;99.90;;;;;;4978883;28;20458;-61
2020/12/06 15:01:35;;;;;;;16.27;14.67;;;6.00;99.90;;;;;;4978890;28;20482;-61
2020/12/06 15:04:02;;;;;;;15.80;14.20;;;6.00;99.90;;;;;;4978718;28;20446;-61
2020/12/06 15:06:32;;;;;;;17.13;15.33;;;6.00;99.90;;;;;;4979568;28;20453;-61
2020/12/06 15:08:58;;;;;;;17.70;14.90;;;6.00;99.90;;;;;;4978108;28;20485;-61
2020/12/06 15:11:24;;;;;;;17.13;15.23;;;6.00;99.90;;;;;;4977582;28;20481;-61
2020/12/06 15:13:51;;;;;;;17.67;15.87;;;6.00;99.90;;;;;;4977896;28;20462;-61
2020/12/06 15:16:17;;;;;;;16.57;14.97;;;6.00;99.90;;;;;;4977337;28;21021;-61
2020/12/06 15:18:48;;;;;;;17.23;15.43;;;6.00;99.90;;;;;;4977939;28;20455;-61
2020/12/06 15:21:14;;;;;;;14.73;13.33;;;6.00;99.90;;;;;;4979172;28;20506;-61
2020/12/06 15:23:40;;;;;;;15.70;14.10;;;6.00;99.90;;;;;;4978873;28;20458;-61
2020/12/06 15:26:07;;;;;;;14.73;13.33;;;6.10;99.90;;;;;;4978826;28;20434;-61
2020/12/06 15:28:33;;;;;;;14.23;12.90;;;6.10;99.90;;;;;;4978467;28;20455;-61
2020/12/06 15:31:00;;;;;;;15.70;14.13;;;6.10;99.90;;;;;;4978648;28;20519;-61
2020/12/06 15:33:26;;;;;;;17.83;16.07;;;6.10;99.90;;;;;;4978469;28;20963;-61
2020/12/06 15:35:53;;;;;;;20.60;18.60;;;6.00;99.90;;;;;;4977941;28;20478;-61
2020/12/06 15:38:19;;;;;;;18.73;14.70;;;6.00;99.90;;;;;;4978838;28;20450;-61
2020/12/06 15:40:45;;;;;;;16.50;14.80;;;6.10;99.90;;;;;;4978572;28;20497;-61
2020/12/06 15:43:11;;;;;;;15.13;13.53;;;6.10;99.90;;;;;;4977905;28;20435;-61
2020/12/06 15:45:38;;;;;;;16.23;14.50;;;6.10;99.90;;;;;;4977590;28;20457;-61
2020/12/06 15:48:05;;;;;;;18.60;16.70;;;6.10;99.90;;;;;;4978082;28;20489;-61
2020/12/06 15:50:31;;;;;;;21.03;17.27;;;6.10;99.90;;;;;;4977667;28;20459;-61
2020/12/06 15:52:57;;;;;;;19.80;17.90;;;6.10;99.90;;;;;;4977854;28;20455;-60
2020/12/06 15:55:23;;;;;;;19.23;17.23;;;6.10;99.90;;;;;;4978180;28;20486;-60
2020/12/06 15:57:49;;;;;;;18.20;16.33;;;6.10;99.90;;;;;;4977740;28;20974;-60
2020/12/06 16:00:16;;;;;;;17.33;15.53;;;6.10;99.90;;;;;;4977635;28;20481;-61
2020/12/06 16:02:42;;;;;;;17.03;15.20;;;6.10;99.90;;;;;;4977158;28;20458;-61
2020/12/06 16:05:12;;;;;;;17.03;15.33;;;6.10;99.90;;;;;;4977044;28;20461;-61
2020/12/06 16:07:38;;;;;;;18.03;16.17;;;6.10;99.90;;;;;;4977198;28;20438;-61
2020/12/06 16:10:05;;;;;;;20.57;17.50;;;6.10;99.90;;;;;;4976963;28;20473;-60
2020/12/06 16:12:31;;;;;;;23.57;21.07;;;6.10;99.90;;;;;;4977211;28;20474;-61
2020/12/06 16:14:57;;;;;;;21.43;19.20;;;6.10;99.90;;;;;;4976920;28;20882;-61
2020/12/06 16:17:23;;;;;;;21.70;17.90;;;6.00;99.90;;;;;;4977031;28;20435;-61
2020/12/06 16:19:49;;;;;;;18.37;16.50;;;6.00;99.90;;;;;;4976849;28;20562;-61
2020/12/06 16:22:16;;;;;;;17.33;15.67;;;6.00;99.90;;;;;;4976811;28;20477;-61
2020/12/06 16:24:43;;;;;;;18.10;16.20;;;6.00;99.90;;;;;;4976593;28;20485;-60
2020/12/06 16:27:09;;;;;;;19.07;16.70;;;6.00;99.90;;;;;;4976613;28;20473;-60
2020/12/06 16:29:35;;;;;;;19.30;17.30;;;6.00;99.90;;;;;;4976107;28;20454;-60
2020/12/06 16:32:05;;;;;;;19.10;17.10;;;6.10;99.90;;;;;;4976484;28;20529;-59
2020/12/06 16:34:32;;;;;;;18.43;16.37;;;6.00;99.90;;;;;;4976407;28;20502;-60
2020/12/06 16:36:58;;;;;;;20.73;17.77;;;6.00;99.90;;;;;;4976123;28;20486;-60
2020/12/06 16:39:25;;;;;;;22.10;18.80;;;5.90;99.90;;;;;;4976262;28;20824;-61
2020/12/06 16:41:55;;;;;;;22.60;19.17;;;5.90;99.90;;;;;;4976161;28;20471;-60
2020/12/06 16:44:21;;;;;;;21.00;17.40;;;5.90;99.90;;;;;;4975947;28;20931;-60
2020/12/06 16:46:47;;;;;;;21.47;17.90;;;5.90;99.90;;;;;;4976403;28;20454;-60
2020/12/06 16:49:13;;;;;;;23.93;19.70;;;5.90;99.90;;;;;;4976308;28;20451;-61
2020/12/06 16:51:40;;;;;;;24.87;19.90;;;5.90;99.90;;;;;;4976208;28;20471;-60
2020/12/06 16:54:06;;;;;;;24.17;19.23;;;5.80;99.90;;;;;;4976269;28;20451;-61
2020/12/06 16:56:33;;;;;;;27.50;21.50;;;5.80;99.90;;;;;;4975431;28;20995;-61
2020/12/06 16:58:59;;;;;;;25.50;21.33;;;5.80;99.90;;;;;;4975790;28;20454;-61
2020/12/06 17:01:25;;;;;;;22.27;19.87;;;5.80;99.90;;;;;;4975421;28;20482;-61
2020/12/06 17:03:51;;;;;;;22.70;20.07;;;5.80;99.90;;;;;;4975692;28;20451;-61
2020/12/06 17:06:17;;;;;;;24.37;20.47;;;5.80;99.90;;;;;;4975395;28;20455;-61
2020/12/06 17:08:44;;;;;;;21.63;19.30;;;5.80;99.90;;;;;;4975113;28;20455;-61
2020/12/06 17:11:10;;;;;;;24.40;20.50;;;5.80;99.90;;;;;;4975390;28;20474;-60
2020/12/06 17:13:37;;;;;;;26.87;20.00;;;5.80;99.90;;;;;;4975465;28;20454;-60
2020/12/06 17:16:03;;;;;;;26.63;20.70;;;5.80;99.90;;;;;;4975457;28;20485;-60
2020/12/06 17:18:29;;;;;;;23.47;19.97;;;5.80;99.90;;;;;;4975480;28;20451;-61
2020/12/06 17:20:55;;;;;;;24.00;19.90;;;5.80;99.90;;;;;;4975803;28;20478;-60
2020/12/06 17:23:21;;;;;;;21.90;19.67;;;5.80;99.90;;;;;;4975064;28;20458;-61
2020/12/06 17:25:48;;;;;;;23.13;19.47;;;5.70;99.90;;;;;;4975543;28;20459;-61
2020/12/06 17:28:14;;;;;;;26.07;21.20;;;5.70;99.90;;;;;;4975606;28;20528;-61
2020/12/06 17:30:41;;;;;;;25.43;22.17;;;5.70;99.90;;;;;;4975243;28;20478;-61
2020/12/06 17:33:07;;;;;;;29.57;23.77;;;5.70;99.90;;;;;;4976207;28;20902;-62
2020/12/06 17:35:33;;;;;;;24.70;20.63;;;5.70;99.90;;;;;;4975887;28;20475;-61
2020/12/06 17:37:59;;;;;;;28.00;19.30;;;5.70;99.90;;;;;;4975439;28;20458;-61